This is the latest recevied weather packets stored in our database for station/object DO2TC-13. If no packets are shown the sender has not sent any weather packets the latest 10 day(s).
| Time | Temp. | Humidity | Pressure | Rain* | Wind** | Luminosity | Snow |
|---|---|---|---|---|---|---|---|
| 1777892723 | 20.56° C | 55% | 1011.2 hPa | 0 mm | - | 447 W/m² | - |
| 1777890966 | 20° C | 58% | 1011.2 hPa | 0 mm | - | 228 W/m² | - |
| 1777890363 | 21.11° C | 54% | 1011.1 hPa | 0 mm | - | 363 W/m² | - |
| 1777889775 | 20.56° C | 56% | 1011.1 hPa | 0 mm | - | 570 W/m² | - |
| 1777886144 | 18.89° C | 61% | 1011.3 hPa | 0 mm | - | 300 W/m² | - |
| 1777879530 | 17.22° C | 71% | 1010.7 hPa | 0 mm | - | 261 W/m² | - |
| 1777877774 | - | - | 1010.6 hPa | 0 mm | - | 236 W/m² | - |
| 1777874142 | - | - | 1010 hPa | 0 mm | - | 142 W/m² | - |
| 1777872932 | - | - | 1010 hPa | 0 mm | - | 112 W/m² | - |
| 1777871116 | - | - | 1009.8 hPa | 0 mm | - | 91 W/m² | - |
| 1777864523 | - | - | 1009.2 hPa | 0 mm | - | 1 W/m² | - |
| 1777863372 | - | - | 1009 hPa | 0 mm | - | 0 W/m² | - |
| 1777859135 | - | - | 1009 hPa | 0 mm | - | 0 W/m² | - |
| 1777855565 | - | - | 1009 hPa | 0 mm | - | 0 W/m² | - |
| 1777854961 | - | - | 1009 hPa | 0 mm | - | 0 W/m² | - |
| 1777853751 | - | - | 1008.9 hPa | 0 mm | - | 0 W/m² | - |
| 1777849575 | - | - | 1008.9 hPa | 0 mm | - | 0 W/m² | - |
| 1777845338 | - | - | 1009 hPa | 0 mm | - | 0 W/m² | - |
| 1777844127 | - | - | 1008.9 hPa | 0 mm | - | 0 W/m² | - |
| 1777838763 | - | - | 1009 hPa | 0 mm | - | 0 W/m² | - |
| 1777835718 | 18.33° C | 60% | 1008.8 hPa | 0 mm | - | 0 W/m² | - |
| 1777829748 | 23.89° C | 36% | 1008.8 hPa | 0 mm | - | 37 W/m² | - |
| 1777826760 | 25° C | 31% | 1008.9 hPa | 0 mm | - | 34 W/m² | - |
| 1777824339 | 25.56° C | 31% | 1009.3 hPa | 0 mm | - | 69 W/m² | - |
| 1777823734 | 25.56° C | 30% | 1009.2 hPa | 0 mm | - | 72 W/m² | - |
* Rain latest hour (hover to see other rain measurements)
** Current wind speed in m/s (hover to see current wind gust speed)